Time;durP1;ratioP1;P1;durP2;ratioP2;P2;SDS_P1;SDS_P2;PMS_P1;PMS_P2;Temp;Humidity;BMP_temperature;BMP_pressure;BME280_temperature;BME280_humidity;BME280_pressure;Samples;Min_cycle;Max_cycle;Signal;HPM_P1;HPM_P2
2024/01/28 00:00:47;;;;;;;26.52;16.02;;;4.80;99.90;;;4.98;92.09;103088.06;4991820;28;20129;-66
2024/01/28 00:03:20;;;;;;;35.63;16.87;;;4.80;99.90;;;4.96;91.89;103088.00;4992141;28;20137;-69
2024/01/28 00:05:49;;;;;;;32.20;16.07;;;4.80;99.90;;;5.04;91.25;103085.78;4992151;28;20056;-69
2024/01/28 00:08:18;;;;;;;31.47;17.07;;;4.90;99.90;;;4.99;91.32;103079.41;4992074;28;20105;-68
2024/01/28 00:10:46;;;;;;;33.87;18.80;;;4.90;99.90;;;5.05;91.47;103084.97;4991978;28;20282;-69
2024/01/28 00:13:17;;;;;;;29.75;17.50;;;4.90;99.90;;;5.01;91.19;103080.38;4992095;28;20101;-69
2024/01/28 00:15:48;;;;;;;33.23;17.10;;;4.90;99.90;;;4.98;91.13;103075.88;4991654;28;20120;-69
2024/01/28 00:18:18;;;;;;;34.63;17.60;;;4.90;99.90;;;5.01;91.51;103069.91;4991683;28;20053;-68
2024/01/28 00:20:47;;;;;;;42.63;20.58;;;4.80;99.90;;;4.97;91.53;103070.56;4991542;28;20436;-69
2024/01/28 00:23:15;;;;;;;32.72;19.67;;;4.80;99.90;;;4.94;91.33;103070.38;4991783;28;20101;-69
2024/01/28 00:25:44;;;;;;;37.50;22.17;;;4.80;99.90;;;5.01;91.70;103073.44;4990703;28;20061;-69
2024/01/28 00:28:12;;;;;;;35.70;20.77;;;4.80;99.90;;;4.97;91.31;103067.94;4991556;28;20392;-68
2024/01/28 00:30:41;;;;;;;36.50;19.67;;;4.90;99.90;;;4.86;91.49;103032.38;4990624;28;20034;-69
2024/01/28 00:33:09;;;;;;;34.97;19.70;;;4.80;99.90;;;4.81;91.51;103041.69;4994168;28;20057;-68
2024/01/28 00:35:39;;;;;;;35.77;19.27;;;4.70;99.90;;;4.84;92.24;103052.38;4998151;28;20476;-69
2024/01/28 00:38:07;;;;;;;35.90;19.25;;;4.70;99.90;;;4.93;92.57;103047.59;4997929;28;20039;-68
2024/01/28 00:40:36;;;;;;;34.58;18.15;;;4.70;99.90;;;4.89;92.07;103037.75;4998479;28;20046;-69
2024/01/28 00:43:05;;;;;;;36.17;18.80;;;4.80;99.90;;;4.82;92.26;103030.41;4998085;28;20165;-67
2024/01/28 00:45:33;;;;;;;33.97;18.30;;;4.80;99.90;;;4.94;92.65;103045.06;4997916;28;20427;-69
2024/01/28 00:48:02;;;;;;;34.10;17.80;;;4.80;99.90;;;4.96;92.28;103043.41;4997922;28;20038;-69
2024/01/28 00:50:34;;;;;;;32.58;17.23;;;4.80;99.90;;;5.00;91.88;103042.75;4997782;28;20476;-67
2024/01/28 00:53:04;;;;;;;35.78;18.20;;;4.90;99.90;;;5.15;91.87;103050.56;4998006;28;20368;-68
2024/01/28 00:55:32;;;;;;;36.28;19.70;;;4.90;99.90;;;5.19;91.01;103055.09;4997887;28;20046;-68
2024/01/28 00:58:02;;;;;;;36.47;19.52;;;5.00;99.90;;;5.29;90.80;103047.81;4997780;28;20124;-69
2024/01/28 01:00:30;;;;;;;32.47;17.30;;;5.10;99.90;;;5.23;90.32;103046.56;4997738;28;20495;-69
2024/01/28 01:02:59;;;;;;;37.28;19.10;;;5.10;99.90;;;5.22;90.56;103039.53;4996732;28;20304;-68
2024/01/28 01:05:28;;;;;;;33.30;17.25;;;5.10;99.90;;;5.28;90.17;103032.00;4997948;28;20030;-68
2024/01/28 01:07:56;;;;;;;32.90;16.63;;;5.10;99.90;;;5.17;90.45;103022.66;4997956;28;20368;-68
2024/01/28 01:10:26;;;;;;;30.77;16.17;;;5.10;99.90;;;4.86;90.90;103014.03;4996732;28;20046;-68
2024/01/28 01:12:55;;;;;;;36.80;17.42;;;4.80;99.90;;;4.70;91.88;103001.81;4996496;28;20050;-69
2024/01/28 01:15:23;;;;;;;32.90;17.83;;;4.70;99.90;;;4.62;92.48;103000.50;4998192;28;20042;-68
2024/01/28 01:17:51;;;;;;;38.30;18.50;;;4.60;99.90;;;4.69;92.57;103004.34;4998142;28;20046;-68
2024/01/28 01:20:20;;;;;;;33.70;17.47;;;4.50;99.90;;;4.66;93.37;102991.09;4997581;28;20046;-69
2024/01/28 01:22:48;;;;;;;35.20;18.77;;;4.50;99.90;;;4.49;93.63;102958.75;4997554;28;20042;-68
2024/01/28 01:25:17;;;;;;;33.57;19.00;;;4.50;99.90;;;4.69;93.15;102983.38;4997728;28;20050;-69
2024/01/28 01:27:48;;;;;;;37.80;20.63;;;4.50;99.90;;;4.67;93.42;102985.00;4998062;28;20054;-67
2024/01/28 01:30:17;;;;;;;34.97;20.20;;;4.50;99.90;;;4.64;93.33;102980.53;4997848;28;20037;-69
2024/01/28 01:32:45;;;;;;;38.00;20.17;;;4.50;99.90;;;4.56;93.27;102981.81;4998155;28;20045;-69
2024/01/28 01:35:14;;;;;;;35.50;19.80;;;4.40;99.90;;;4.49;92.65;102967.47;4997424;28;20042;-69
2024/01/28 01:37:43;;;;;;;33.27;19.03;;;4.40;99.90;;;4.39;93.07;102974.78;4997417;28;20049;-68
2024/01/28 01:40:14;;;;;;;38.03;20.40;;;4.30;99.90;;;4.42;93.66;102973.22;4997467;28;20524;-68
2024/01/28 01:42:43;;;;;;;39.43;20.73;;;4.30;99.90;;;4.39;94.02;102962.56;4997889;28;20045;-68
2024/01/28 01:45:13;;;;;;;37.33;22.90;;;4.20;99.90;;;4.10;93.98;102928.69;4994231;28;20038;-68
2024/01/28 01:47:43;;;;;;;39.35;23.40;;;4.20;99.90;;;4.13;94.00;102946.25;4994857;28;20096;-68
2024/01/28 01:50:12;;;;;;;35.97;20.93;;;4.10;99.90;;;4.37;93.61;102964.22;4994273;28;20046;-69
2024/01/28 01:52:42;;;;;;;31.45;21.30;;;4.20;99.90;;;4.40;93.20;102967.00;4994237;28;20042;-67
2024/01/28 01:55:11;;;;;;;37.15;21.95;;;4.20;99.90;;;4.48;93.33;102967.41;4994267;28;20082;-68
2024/01/28 01:57:43;;;;;;;41.17;22.92;;;4.30;99.90;;;4.65;92.53;102970.91;4994399;28;20062;-68
2024/01/28 02:00:15;;;;;;;32.80;20.87;;;4.40;99.90;;;4.60;92.09;102970.69;4993123;28;20050;-68
2024/01/28 02:02:46;;;;;;;32.57;20.33;;;4.50;99.90;;;4.59;92.24;102961.91;4993129;28;20696;-68
2024/01/28 02:05:15;;;;;;;35.75;18.90;;;4.40;99.90;;;4.75;91.80;102970.59;4992830;28;20046;-68
2024/01/28 02:07:44;;;;;;;32.78;18.27;;;4.50;99.90;;;4.92;90.99;102965.41;4992786;28;20495;-67
2024/01/28 02:10:13;;;;;;;32.23;18.90;;;4.70;99.90;;;4.92;89.76;102967.13;4993791;28;20050;-67
2024/01/28 02:12:43;;;;;;;29.93;18.07;;;4.80;99.90;;;5.00;89.57;102956.22;4994093;28;20153;-68
2024/01/28 02:15:13;;;;;;;34.42;17.80;;;4.90;99.90;;;5.02;88.82;102962.44;4993802;28;20095;-68
2024/01/28 02:17:42;;;;;;;32.10;16.80;;;4.90;99.90;;;5.03;88.35;102960.72;4993735;28;20039;-68
2024/01/28 02:20:12;;;;;;;35.42;17.00;;;4.90;99.90;;;4.98;87.77;102955.25;4993885;28;20042;-68
2024/01/28 02:22:40;;;;;;;;;;;4.90;99.90;;;4.77;87.32;102950.59;4993096;28;20696;-68
2024/01/28 02:25:10;;;;;;;29.40;16.87;;;4.70;99.90;;;4.54;87.84;102926.72;4993490;28;19926;-68
2024/01/28 02:27:41;;;;;;;31.05;15.50;;;4.60;99.90;;;4.62;87.69;102955.94;4993553;28;20053;-67
2024/01/28 02:30:11;;;;;;;29.03;15.37;;;4.50;99.90;;;4.64;87.94;102958.66;4993544;28;20108;-68
2024/01/28 02:32:48;;;;;;;29.33;16.05;;;4.50;99.90;;;4.57;87.56;102936.44;4993828;28;20097;-68
2024/01/28 02:35:17;;;;;;;27.63;15.53;;;4.50;99.90;;;4.70;87.87;102949.41;4993442;28;20121;-66
2024/01/28 02:37:46;;;;;;;29.03;15.23;;;4.60;99.90;;;4.71;87.55;102924.97;4993851;28;20042;-68
2024/01/28 02:40:16;;;;;;;26.90;15.53;;;4.60;99.90;;;4.85;86.88;102938.78;4992255;28;20046;-68
2024/01/28 02:42:44;;;;;;;31.52;14.95;;;4.70;99.90;;;4.94;86.51;102934.94;4993386;28;20499;-68
2024/01/28 02:45:13;;;;;;;28.93;14.50;;;4.80;99.90;;;4.91;86.40;102936.50;4992195;28;20273;-68
2024/01/28 02:47:41;;;;;;;27.83;14.55;;;4.80;99.90;;;4.79;85.69;102936.75;4993549;28;20606;-68
2024/01/28 02:50:10;;;;;;;30.20;15.20;;;4.70;99.90;;;4.72;85.61;102924.16;4991775;28;20042;-68
2024/01/28 02:52:38;;;;;;;28.10;14.13;;;4.60;99.90;;;4.70;86.05;102928.44;4992051;28;20387;-69
2024/01/28 02:55:08;;;;;;;28.37;14.13;;;4.50;99.90;;;4.70;85.84;102927.53;4993217;28;20102;-67
2024/01/28 02:57:38;;;;;;;21.63;12.95;;;4.50;99.90;;;4.55;85.71;102922.34;4991612;28;20038;-68
2024/01/28 03:00:08;;;;;;;29.98;14.15;;;4.40;99.90;;;4.28;86.77;102924.41;4993475;28;20124;-68
2024/01/28 03:02:39;;;;;;;22.80;12.93;;;4.20;99.90;;;3.98;86.97;102895.69;4993325;28;20125;-68
2024/01/28 03:05:10;;;;;;;24.33;13.77;;;4.00;99.90;;;4.00;87.85;102913.28;4992901;28;20086;-68
2024/01/28 03:07:40;;;;;;;26.87;13.23;;;3.90;99.90;;;3.84;88.51;102909.72;4993126;28;20120;-68
2024/01/28 03:10:09;;;;;;;22.67;12.70;;;3.70;99.90;;;3.83;88.68;102887.91;4992675;28;20714;-67
2024/01/28 03:12:39;;;;;;;28.87;13.47;;;3.70;99.90;;;3.88;88.36;102890.75;4992805;28;20061;-68
2024/01/28 03:15:09;;;;;;;22.20;13.77;;;3.70;99.90;;;3.95;87.75;102896.41;4992678;28;20577;-69
2024/01/28 03:17:38;;;;;;;21.40;13.00;;;3.80;99.90;;;3.96;88.01;102882.50;4993010;28;20046;-68
2024/01/28 03:20:09;;;;;;;25.47;13.67;;;3.80;99.90;;;3.98;87.60;102896.59;4992696;28;20365;-68
2024/01/28 03:22:38;;;;;;;24.87;14.70;;;3.80;99.90;;;4.03;87.05;102889.88;4992717;28;20069;-68
2024/01/28 03:25:08;;;;;;;32.43;17.67;;;3.90;99.90;;;4.08;87.08;102900.59;4992760;28;20039;-68
2024/01/28 03:27:36;;;;;;;;;;;3.90;99.90;;;4.12;86.62;102894.72;4993474;28;20042;-68
2024/01/28 03:30:08;;;;;;;29.20;17.83;;;4.00;99.90;;;4.06;86.91;102895.28;4993009;28;19945;-67
2024/01/28 03:32:37;;;;;;;29.30;16.93;;;4.00;99.90;;;4.17;86.37;102880.13;4992391;28;20042;-68
2024/01/28 03:35:09;;;;;;;27.90;15.38;;;4.00;99.90;;;4.23;86.08;102878.75;4992467;28;20093;-68
2024/01/28 03:37:38;;;;;;;22.92;14.32;;;4.00;99.90;;;4.12;85.55;102886.88;4992482;28;20065;-68
2024/01/28 03:40:09;;;;;;;23.27;13.50;;;4.00;99.90;;;4.26;85.48;102884.16;4992841;28;20380;-66
2024/01/28 03:42:37;;;;;;;21.33;13.27;;;4.10;99.90;;;4.29;85.08;102883.41;4992680;28;20042;-68
2024/01/28 03:45:10;;;;;;;30.03;15.03;;;4.20;99.90;;;4.26;85.13;102881.53;4992668;28;20049;-68
2024/01/28 03:47:39;;;;;;;26.50;14.33;;;4.20;99.90;;;4.03;85.55;102876.78;4992631;28;20045;-68
2024/01/28 03:50:11;;;;;;;29.07;14.57;;;4.00;99.90;;;3.65;86.32;102851.16;4991089;28;20043;-67
2024/01/28 03:52:39;;;;;;;28.08;14.82;;;3.80;99.90;;;3.74;87.37;102878.63;4992373;28;20042;-68
2024/01/28 03:55:08;;;;;;;23.00;13.73;;;3.60;99.90;;;3.64;87.88;102879.81;4991945;28;20104;-67
2024/01/28 03:57:40;;;;;;;23.67;15.03;;;3.50;99.90;;;3.56;88.57;102878.53;4992227;28;20051;-67
2024/01/28 04:00:13;;;;;;;29.80;18.47;;;3.50;99.90;;;3.62;89.23;102871.00;4992190;28;20710;-68
2024/01/28 04:02:42;;;;;;;31.43;18.37;;;3.50;99.90;;;3.79;89.30;102878.09;4990800;28;20486;-68
2024/01/28 04:05:10;;;;;;;28.10;18.37;;;3.60;99.90;;;3.77;88.97;102852.63;4991748;28;20603;-69
2024/01/28 04:07:39;;;;;;;33.43;18.30;;;3.70;99.90;;;3.89;88.91;102882.97;4991059;28;20399;-68
2024/01/28 04:10:09;;;;;;;29.90;17.30;;;3.70;99.90;;;3.67;89.00;102875.69;4991945;28;20042;-68
2024/01/28 04:12:37;;;;;;;28.35;16.77;;;3.60;99.90;;;3.65;89.17;102864.22;4991770;28;20054;-68
2024/01/28 04:15:07;;;;;;;23.43;16.27;;;3.60;99.90;;;3.65;89.06;102860.72;4991694;28;20348;-69
2024/01/28 04:17:37;;;;;;;25.50;17.55;;;3.50;99.90;;;3.71;88.90;102863.66;4992221;28;20617;-69
2024/01/28 04:20:08;;;;;;;26.00;15.57;;;3.60;99.90;;;3.76;88.65;102859.56;4991754;28;20064;-68
2024/01/28 04:22:36;;;;;;;28.53;16.00;;;3.60;99.90;;;3.76;88.06;102853.44;4991626;28;20053;-69
2024/01/28 04:25:06;;;;;;;27.43;16.70;;;3.70;99.90;;;3.70;88.21;102846.16;4992158;28;20101;-67
2024/01/28 04:27:35;;;;;;;30.00;16.25;;;3.60;99.90;;;3.52;88.68;102842.53;4991666;28;20046;-68
2024/01/28 04:30:05;;;;;;;28.03;17.43;;;3.50;99.90;;;3.37;89.32;102836.44;4991689;28;20064;-68
2024/01/28 04:32:34;;;;;;;25.73;15.85;;;3.40;99.90;;;3.35;89.74;102835.44;4991460;28;20653;-70
2024/01/28 04:35:05;;;;;;;27.97;16.70;;;3.30;99.90;;;3.28;90.45;102862.97;4991756;28;20065;-69
2024/01/28 04:37:33;;;;;;;32.63;16.83;;;3.20;99.90;;;3.23;90.45;102834.78;4992113;28;20049;-68
2024/01/28 04:40:01;;;;;;;33.97;16.57;;;3.20;99.90;;;3.32;90.58;102835.28;4991716;28;20046;-68
2024/01/28 04:42:30;;;;;;;31.57;16.60;;;3.20;99.90;;;3.22;90.75;102827.72;4991440;28;20129;-68
2024/01/28 04:44:58;;;;;;;29.70;16.40;;;3.20;99.90;;;3.21;90.93;102820.72;4991321;28;20042;-69
2024/01/28 04:47:27;;;;;;;30.50;17.13;;;3.10;99.90;;;3.23;90.86;102816.47;4991475;28;20372;-67
2024/01/28 04:49:55;;;;;;;29.37;17.53;;;3.20;99.90;;;3.17;90.93;102823.97;4991875;28;20097;-69
2024/01/28 04:52:25;;;;;;;27.63;18.13;;;3.10;99.90;;;3.23;91.00;102811.25;4989998;28;20070;-68
2024/01/28 04:54:53;;;;;;;35.17;17.73;;;3.10;99.90;;;3.24;91.08;102807.81;4991091;28;20049;-69
2024/01/28 04:57:22;;;;;;;25.50;17.20;;;3.20;99.90;;;3.30;90.98;102805.53;4991096;28;20038;-67
2024/01/28 04:59:50;;;;;;;26.63;16.37;;;3.20;99.90;;;3.38;90.42;102801.63;4991384;28;20043;-68
2024/01/28 05:02:19;;;;;;;25.73;14.60;;;3.30;99.90;;;3.43;89.91;102808.91;4991219;28;20125;-69
2024/01/28 05:04:47;;;;;;;26.80;14.57;;;3.30;99.90;;;3.50;89.46;102804.94;4991509;28;20045;-69
2024/01/28 05:07:17;;;;;;;25.60;13.87;;;3.40;99.90;;;3.45;89.09;102801.16;4991269;28;20442;-68
2024/01/28 05:09:47;;;;;;;23.75;13.25;;;3.40;99.90;;;3.57;88.28;102804.44;4991201;28;20048;-67
2024/01/28 05:12:15;;;;;;;23.30;13.93;;;3.40;99.90;;;3.68;87.88;102798.97;4990929;28;20101;-67
2024/01/28 05:14:44;;;;;;;25.17;13.70;;;3.50;99.90;;;3.37;87.08;102727.50;4991289;28;20043;-68
2024/01/28 05:17:13;;;;;;;29.53;14.13;;;3.70;99.90;;;3.73;86.53;102788.75;4991250;28;20105;-68
2024/01/28 05:19:41;;;;;;;25.00;12.70;;;3.60;99.90;;;3.66;86.24;102781.38;4993268;28;20038;-68
2024/01/28 05:22:10;;;;;;;23.67;13.57;;;3.60;99.90;;;3.50;86.52;102773.53;4994879;28;20121;-68
2024/01/28 05:24:38;;;;;;;21.30;13.90;;;3.40;99.90;;;3.37;86.69;102778.88;4994949;28;20093;-69
2024/01/28 05:27:08;;;;;;;24.57;13.50;;;3.30;99.90;;;3.37;86.95;102774.56;4994912;28;20046;-68
2024/01/28 05:29:37;;;;;;;21.30;14.07;;;3.30;99.90;;;3.41;86.94;102778.25;4993679;28;20046;-68
2024/01/28 05:32:06;;;;;;;22.17;14.37;;;3.30;99.90;;;3.48;86.73;102768.19;4994779;28;20153;-68
2024/01/28 05:34:35;;;;;;;20.50;13.97;;;3.40;99.90;;;3.60;86.13;102760.16;4994668;28;20134;-68
2024/01/28 05:37:04;;;;;;;23.60;15.03;;;3.50;99.90;;;3.66;86.24;102763.97;4994941;28;20468;-69
2024/01/28 05:39:32;;;;;;;22.20;13.67;;;3.50;99.90;;;3.66;85.20;102744.75;4994589;28;20089;-68
2024/01/28 05:42:00;;;;;;;22.33;14.40;;;3.70;99.90;;;3.78;84.93;102765.44;4994450;28;20785;-69
2024/01/28 05:44:30;;;;;;;21.63;14.07;;;3.70;99.90;;;3.66;84.86;102768.31;4993294;28;20038;-68
2024/01/28 05:46:59;;;;;;;22.48;13.18;;;3.60;99.90;;;3.63;84.91;102768.16;4994618;28;20046;-68
2024/01/28 05:49:27;;;;;;;22.13;13.90;;;3.60;99.90;;;3.67;84.94;102765.78;4994373;28;20034;-69
2024/01/28 05:51:56;;;;;;;20.30;13.10;;;3.60;99.90;;;3.73;84.82;102770.44;4994126;28;20042;-67
2024/01/28 05:54:25;;;;;;;26.30;12.53;;;3.60;99.90;;;3.66;84.61;102770.91;4994229;28;20125;-68
2024/01/28 05:56:53;;;;;;;19.73;13.00;;;3.60;99.90;;;3.73;84.64;102765.22;4993034;28;20414;-68
2024/01/28 05:59:21;;;;;;;24.70;13.13;;;3.60;99.90;;;3.59;84.82;102769.72;4994577;28;20034;-69
2024/01/28 06:01:51;;;;;;;22.43;12.43;;;3.50;99.90;;;3.53;84.94;102774.59;4994019;28;20042;-68
2024/01/28 06:04:20;;;;;;;19.08;12.07;;;3.40;99.90;;;3.32;85.21;102754.22;4993161;28;20108;-67
2024/01/28 06:06:48;;;;;;;22.37;12.30;;;3.40;99.90;;;3.44;85.63;102775.81;4994210;28;20046;-68
2024/01/28 06:09:18;;;;;;;21.23;12.33;;;3.30;99.90;;;3.46;85.39;102787.28;4992881;28;20430;-67
2024/01/28 06:11:46;;;;;;;17.90;11.80;;;3.40;99.90;;;3.55;85.35;102772.06;4993628;28;20125;-68
2024/01/28 06:14:14;;;;;;;21.77;11.77;;;3.40;99.90;;;3.55;85.42;102761.59;4993974;28;20042;-69
2024/01/28 06:16:42;;;;;;;26.63;13.73;;;3.50;99.90;;;3.64;85.23;102759.47;4993711;28;20066;-68
2024/01/28 06:19:12;;;;;;;22.27;13.00;;;3.50;99.90;;;3.67;84.81;102765.78;4993824;28;20077;-68
2024/01/28 06:21:41;;;;;;;23.88;12.20;;;3.60;99.90;;;3.72;84.42;102768.63;4994086;28;20038;-69
2024/01/28 06:24:09;;;;;;;19.50;12.47;;;3.60;99.90;;;3.60;84.08;102750.56;4994067;28;20066;-67
2024/01/28 06:26:39;;;;;;;16.93;11.57;;;3.60;99.90;;;3.48;84.10;102769.94;4993679;28;20487;-68
2024/01/28 06:29:08;;;;;;;21.25;12.93;;;3.50;99.90;;;3.54;84.29;102749.34;4993828;28;20042;-68
2024/01/28 06:31:36;;;;;;;25.70;12.43;;;3.50;99.90;;;3.62;84.57;102746.31;4992870;28;20440;-67
2024/01/28 06:34:05;;;;;;;22.97;13.40;;;3.50;99.90;;;3.53;84.94;102739.69;4993614;28;20104;-69
2024/01/28 06:36:35;;;;;;;22.03;12.43;;;3.50;99.90;;;3.50;85.35;102744.78;4993365;28;20672;-68
2024/01/28 06:39:03;;;;;;;20.30;12.27;;;3.40;99.90;;;3.45;85.09;102740.97;4993928;28;20129;-68
2024/01/28 06:41:32;;;;;;;20.07;12.97;;;3.40;99.90;;;3.27;85.74;102719.97;4992312;28;20047;-67
2024/01/28 06:44:02;;;;;;;19.47;12.80;;;3.30;99.90;;;3.40;85.55;102745.06;4993361;28;20381;-69
2024/01/28 06:46:31;;;;;;;17.38;12.77;;;3.30;99.90;;;3.43;85.48;102737.38;4993385;28;20054;-67
2024/01/28 06:48:59;;;;;;;21.67;11.13;;;3.30;99.90;;;3.43;85.45;102743.53;4993237;28;20066;-69
2024/01/28 06:51:28;;;;;;;17.07;11.53;;;3.40;99.90;;;3.57;84.88;102739.03;4993127;28;20056;-67
2024/01/28 06:53:58;;;;;;;19.37;10.87;;;3.40;99.90;;;3.63;85.25;102747.22;4993565;28;20060;-68
2024/01/28 06:56:27;;;;;;;15.25;11.18;;;3.50;99.90;;;3.59;84.71;102747.88;4991983;28;20050;-67
2024/01/28 06:58:55;;;;;;;18.07;11.03;;;3.50;99.90;;;3.49;84.83;102743.88;4993299;28;20046;-68
2024/01/28 07:01:24;;;;;;;23.03;12.43;;;3.40;99.90;;;3.36;85.13;102746.63;4992841;28;20069;-69
2024/01/28 07:03:52;;;;;;;19.90;11.90;;;3.30;99.90;;;3.34;85.42;102737.81;4992757;28;20042;-68
2024/01/28 07:06:21;;;;;;;21.37;12.00;;;3.30;99.90;;;3.35;85.79;102739.59;4993152;28;20081;-69
2024/01/28 07:08:50;;;;;;;21.53;12.23;;;3.20;99.90;;;3.50;85.04;102731.69;4991847;28;20077;-67
2024/01/28 07:11:19;;;;;;;17.87;11.53;;;3.40;99.90;;;3.58;84.65;102733.00;4992822;28;20456;-69
2024/01/28 07:13:48;;;;;;;17.50;11.10;;;3.40;99.90;;;3.68;84.27;102735.25;4993127;28;20065;-67
2024/01/28 07:16:16;;;;;;;24.13;12.27;;;3.60;99.90;;;3.77;83.70;102733.16;4992662;28;20046;-68
2024/01/28 07:18:45;;;;;;;17.13;10.40;;;3.70;99.90;;;3.74;82.70;102737.31;4992878;28;20443;-68
2024/01/28 07:21:14;;;;;;;17.83;11.47;;;3.70;99.90;;;3.70;83.05;102731.00;4992571;28;20620;-67
2024/01/28 07:23:43;;;;;;;18.53;11.07;;;3.70;99.90;;;3.72;82.75;102725.88;4991598;28;20047;-67
2024/01/28 07:26:11;;;;;;;15.77;10.10;;;3.70;99.90;;;3.72;82.79;102718.91;4992449;28;20046;-69
2024/01/28 07:28:42;;;;;;;19.47;10.60;;;3.70;99.90;;;3.68;82.45;102730.03;4993860;28;20069;-68
2024/01/28 07:31:11;;;;;;;15.10;10.27;;;3.70;99.90;;;3.67;82.45;102726.53;4992359;28;20053;-68
2024/01/28 07:33:39;;;;;;;16.17;10.73;;;3.70;99.90;;;3.63;81.97;102734.13;4992371;28;20050;-67
2024/01/28 07:36:09;;;;;;;16.00;10.67;;;3.60;99.90;;;3.65;82.42;102729.88;4992025;28;20385;-71
2024/01/28 07:38:38;;;;;;;17.60;10.65;;;3.60;99.90;;;3.71;82.09;102722.38;4992279;28;20066;-72
2024/01/28 07:41:14;;;;;;;16.80;11.07;;;3.60;99.90;;;3.73;81.67;102730.28;4992211;28;20078;-69
2024/01/28 07:43:44;;;;;;;17.57;10.13;;;3.70;99.90;;;3.88;81.29;102716.28;4991375;28;20035;-69
2024/01/28 07:46:12;;;;;;;19.75;10.75;;;3.80;99.90;;;3.84;80.88;102698.63;4992393;28;20034;-72
2024/01/28 07:48:40;;;;;;;17.93;11.00;;;3.80;99.90;;;3.95;81.03;102705.31;4992083;28;20053;-75
2024/01/28 07:51:08;;;;;;;14.47;10.20;;;3.90;99.90;;;4.08;80.59;102699.00;4992446;28;20066;-74
2024/01/28 07:53:37;;;;;;;17.50;10.00;;;3.90;99.90;;;4.05;79.95;102686.63;4992283;28;20049;-70
2024/01/28 07:56:06;;;;;;;18.33;10.53;;;4.00;99.90;;;3.99;79.93;102683.69;4990912;28;20464;-71
2024/01/28 07:58:34;;;;;;;17.30;10.50;;;3.90;99.90;;;4.03;79.98;102687.38;4991896;28;20069;-70
2024/01/28 08:01:05;;;;;;;19.17;10.07;;;3.90;99.90;;;4.25;79.33;102690.25;4992084;28;20042;-70
2024/01/28 08:03:33;;;;;;;16.00;10.13;;;4.10;99.90;;;4.38;79.00;102687.44;4992109;28;20129;-70
2024/01/28 08:06:04;;;;;;;18.33;10.37;;;4.20;99.90;;;4.35;78.74;102682.97;4991654;28;20388;-68
2024/01/28 08:08:34;;;;;;;15.97;9.97;;;4.20;99.90;;;4.38;78.44;102672.63;4991779;28;20042;-68
2024/01/28 08:11:05;;;;;;;14.23;9.63;;;4.30;99.90;;;4.45;78.36;102690.41;4991785;28;20435;-72
2024/01/28 08:13:36;;;;;;;18.43;10.67;;;4.30;99.90;;;4.46;77.74;102680.84;4991312;28;20046;-69
2024/01/28 08:16:08;;;;;;;16.47;10.07;;;4.40;99.90;;;4.64;77.06;102701.81;4990783;28;20038;-70
2024/01/28 08:18:39;;;;;;;18.13;10.45;;;4.50;99.90;;;4.77;76.79;102685.84;4991669;28;20046;-68
2024/01/28 08:21:09;;;;;;;15.05;10.30;;;4.60;99.90;;;4.95;76.40;102689.38;4991372;28;20046;-71
2024/01/28 08:23:37;;;;;;;16.35;9.90;;;4.70;99.90;;;5.17;75.22;102685.19;4991453;28;20062;-74
2024/01/28 08:26:06;;;;;;;16.30;9.95;;;4.90;99.90;;;5.28;74.09;102681.31;4991690;28;20043;-71
2024/01/28 08:28:34;;;;;;;17.65;9.90;;;5.10;99.90;;;5.42;74.05;102690.72;4991368;28;20097;-70
2024/01/28 08:31:03;;;;;;;17.15;9.52;;;5.20;99.90;;;5.37;73.70;102681.75;4990445;28;20108;-75
2024/01/28 08:33:33;;;;;;;16.77;10.13;;;5.20;99.90;;;5.30;73.20;102678.78;4991470;28;20396;-70
2024/01/28 08:36:01;;;;;;;17.52;9.85;;;5.20;99.90;;;5.50;72.85;102677.94;4991157;28;20038;-69
2024/01/28 08:38:31;;;;;;;15.53;10.00;;;5.30;99.90;;;5.82;72.45;102667.16;4990519;28;20054;-68
2024/01/28 08:41:00;;;;;;;14.90;9.25;;;5.60;99.90;;;6.16;71.20;102686.19;4991198;28;20050;-68
2024/01/28 08:43:28;;;;;;;17.63;9.63;;;5.90;99.90;;;6.09;70.46;102681.53;4991787;28;20105;-67
2024/01/28 08:45:56;;;;;;;16.35;9.77;;;6.00;99.90;;;6.10;70.32;102688.56;4991495;28;20050;-68
2024/01/28 08:48:25;;;;;;;19.73;9.90;;;5.90;99.90;;;6.22;69.60;102675.94;4991458;28;20145;-68
2024/01/28 08:50:55;;;;;;;13.30;8.68;;;6.10;99.90;;;6.06;69.77;102678.75;4991330;28;20102;-69
2024/01/28 08:53:23;;;;;;;13.98;8.95;;;5.90;99.90;;;6.09;70.02;102678.91;4991244;28;20080;-69
2024/01/28 08:55:52;;;;;;;15.80;8.70;;;5.90;99.90;;;6.35;69.49;102666.81;4995158;28;20061;-69
2024/01/28 08:58:20;;;;;;;15.45;9.20;;;6.10;99.90;;;6.95;68.88;102660.53;4994972;28;20042;-70
2024/01/28 09:00:49;;;;;;;13.90;9.40;;;6.60;99.90;;;7.40;67.15;102663.97;4995683;28;20050;-70
2024/01/28 09:03:17;;;;;;;15.63;8.93;;;7.20;99.90;;;7.60;66.02;102663.91;4995097;28;20503;-68
2024/01/28 09:05:46;;;;;;;15.00;8.43;;;7.40;99.90;;;7.89;65.10;102665.84;4995179;28;20042;-69
2024/01/28 09:08:16;;;;;;;14.63;8.63;;;7.60;99.90;;;8.10;64.29;102666.56;4994852;28;20046;-69
2024/01/28 09:10:44;;;;;;;15.93;8.20;;;7.90;99.90;;;8.19;64.06;102671.25;4994978;28;20661;-70
2024/01/28 09:13:13;;;;;;;19.05;8.43;;;8.00;99.90;;;8.28;63.72;102670.72;4995146;28;20053;-69
2024/01/28 09:15:41;;;;;;;14.88;8.40;;;8.10;99.90;;;8.56;64.60;102670.75;4994846;28;20030;-69
2024/01/28 09:18:10;;;;;;;12.43;8.10;;;8.30;99.90;;;8.57;63.95;102664.66;4994912;28;20109;-69
2024/01/28 09:20:38;;;;;;;12.65;8.23;;;8.30;99.90;;;7.95;63.87;102678.31;4994881;28;20077;-69
2024/01/28 09:23:07;;;;;;;11.50;8.65;;;7.90;99.90;;;7.79;65.16;102671.63;4994680;28;20081;-69
2024/01/28 09:25:37;;;;;;;15.13;9.00;;;7.60;99.90;;;7.74;64.64;102667.91;4995253;28;20092;-68
2024/01/28 09:28:07;;;;;;;14.77;9.07;;;7.60;99.90;;;7.94;65.10;102666.88;4993887;28;20061;-69
2024/01/28 09:30:36;;;;;;;14.88;8.80;;;7.60;99.90;;;8.14;64.30;102660.56;4993253;28;20287;-70
2024/01/28 09:33:05;;;;;;;17.70;9.10;;;7.80;99.90;;;8.08;63.55;102662.09;4994503;28;20042;-70
2024/01/28 09:35:33;;;;;;;13.52;9.23;;;7.80;99.90;;;8.48;63.93;102661.72;4994410;28;20038;-70
2024/01/28 09:38:02;;;;;;;13.52;8.77;;;8.10;99.90;;;8.87;62.54;102652.44;4994310;28;20503;-69
2024/01/28 09:40:30;;;;;;;15.00;8.52;;;8.60;99.90;;;9.12;62.15;102654.09;4994430;28;20043;-69
2024/01/28 09:43:10;;;;;;;14.63;8.52;;;8.80;99.90;;;8.84;61.80;102660.25;4994387;28;20073;-70
2024/01/28 09:45:39;;;;;;;14.47;8.87;;;8.70;99.90;;;8.84;62.87;102657.63;4994472;28;20068;-70
2024/01/28 09:48:08;;;;;;;11.40;8.38;;;8.60;99.90;;;8.86;63.49;102654.19;4993134;28;20042;-70
2024/01/28 09:50:37;;;;;;;12.55;8.57;;;8.60;99.90;;;8.79;62.94;102649.56;4994315;28;20038;-70
2024/01/28 09:53:06;;;;;;;14.60;8.77;;;8.60;99.90;;;9.01;62.75;102649.38;4994555;28;20387;-69
2024/01/28 09:55:34;;;;;;;13.55;8.20;;;8.70;99.90;;;9.10;62.41;102652.28;4994048;28;20046;-68
2024/01/28 09:58:04;;;;;;;13.02;8.40;;;8.80;99.90;;;9.40;62.15;102652.31;4993042;28;20043;-68
2024/01/28 10:00:33;;;;;;;12.20;7.57;;;9.10;99.90;;;9.50;62.36;102646.44;4993982;28;20089;-68
2024/01/28 10:03:01;;;;;;;13.50;8.77;;;9.20;99.90;;;9.68;61.97;102633.72;4993995;28;20472;-67
2024/01/28 10:05:30;;;;;;;13.85;8.15;;;9.40;99.90;;;9.64;59.69;102625.69;4992100;28;20045;-67
2024/01/28 10:08:04;;;;;;;12.73;8.80;;;9.50;99.90;;;9.57;60.51;102647.50;4992863;28;20057;-69
2024/01/28 10:10:37;;;;;;;15.05;8.85;;;9.30;99.90;;;9.41;62.33;102646.16;4993798;28;20117;-69
2024/01/28 10:13:07;;;;;;;11.90;7.85;;;9.20;99.90;;;9.28;61.96;102635.19;4994092;28;20062;-68
2024/01/28 10:15:36;;;;;;;10.35;7.00;;;9.10;99.90;;;10.09;60.49;102645.41;4994312;28;20046;-68
2024/01/28 10:18:06;;;;;;;13.07;7.88;;;9.70;99.90;;;10.00;60.17;102643.44;4993576;28;20041;-69
2024/01/28 10:20:34;;;;;;;9.38;7.45;;;9.70;99.90;;;10.25;58.91;102638.78;4993599;28;20106;-69
2024/01/28 10:23:03;;;;;;;9.80;6.93;;;9.90;99.90;;;9.49;57.29;102554.81;4993947;28;20042;-72